createdAt,value
2023-03-05T00:01:22.788Z,95893.66
2023-03-05T00:03:52.414Z,95898.34
2023-03-05T00:06:20.650Z,95891.25
2023-03-05T00:08:50.402Z,95899.56
2023-03-05T00:11:18.688Z,95897.75
2023-03-05T00:13:47.141Z,95901.47
2023-03-05T00:16:16.239Z,95888.69
2023-03-05T00:18:45.041Z,95903.84
2023-03-05T00:21:19.500Z,95889.97
2023-03-05T00:23:47.559Z,95895.25
2023-03-05T00:26:16.999Z,95906.44
2023-03-05T00:28:44.935Z,95893.44
2023-03-05T00:31:13.110Z,95894.28
2023-03-05T00:33:41.087Z,95897.94
2023-03-05T00:36:09.452Z,95895.28
2023-03-05T00:38:37.550Z,95888.88
2023-03-05T00:41:05.530Z,95890.19
2023-03-05T00:43:34.834Z,95894.81
2023-03-05T00:46:02.952Z,95884.63
2023-03-05T00:48:30.961Z,95900.81
2023-03-05T00:50:58.900Z,95897.97
2023-03-05T00:53:27.421Z,95895.69
2023-03-05T00:55:55.651Z,95889.41
2023-03-05T00:58:23.608Z,95890.66
2023-03-05T01:00:53.032Z,95887.59
2023-03-05T01:03:21.065Z,95903.22
2023-03-05T01:05:48.963Z,95905.00
2023-03-05T01:08:17.089Z,95901.66
2023-03-05T01:10:44.993Z,95893.81
2023-03-05T01:13:13.079Z,95910.78
2023-03-05T01:15:41.114Z,95889.38
2023-03-05T01:18:10.485Z,95899.84
2023-03-05T01:20:38.603Z,95898.06
2023-03-05T01:23:06.657Z,95899.63
2023-03-05T01:25:34.706Z,95897.84
2023-03-05T01:28:02.668Z,95893.16
2023-03-05T01:30:30.663Z,95892.94
2023-03-05T01:32:58.618Z,95890.59
2023-03-05T01:35:28.004Z,95882.78
2023-03-05T01:37:56.081Z,95892.44
2023-03-05T01:40:26.328Z,95899.50
2023-03-05T01:42:58.408Z,95888.06
2023-03-05T01:45:26.817Z,95880.28
2023-03-05T01:47:54.850Z,95885.81
2023-03-05T01:50:26.020Z,95907.09
2023-03-05T01:52:59.359Z,95884.00
2023-03-05T01:55:29.006Z,95895.44
2023-03-05T01:57:59.055Z,95882.19
2023-03-05T02:00:29.168Z,95890.50
2023-03-05T02:02:58.521Z,95893.09
2023-03-05T02:05:28.122Z,95894.16
2023-03-05T02:07:58.016Z,95892.06
2023-03-05T02:10:26.795Z,95895.19
2023-03-05T02:12:56.111Z,95895.19
2023-03-05T02:15:24.388Z,95885.84
2023-03-05T02:17:52.487Z,95890.03
2023-03-05T02:20:22.237Z,95882.19
2023-03-05T02:22:51.626Z,95886.34
2023-03-05T02:25:20.904Z,95884.00
2023-03-05T02:27:53.738Z,95892.06
2023-03-05T02:30:21.623Z,95888.94
2023-03-05T02:32:49.689Z,95881.63
2023-03-05T02:35:17.757Z,95891.31
2023-03-05T02:37:45.851Z,95887.97
2023-03-05T02:40:15.742Z,95877.03
2023-03-05T02:42:43.666Z,95877.03
2023-03-05T02:45:12.388Z,95876.00
2023-03-05T02:47:40.353Z,95874.19
2023-03-05T02:50:09.228Z,95880.44
2023-03-05T02:52:40.522Z,95877.03
2023-03-05T02:55:08.740Z,95870.84
2023-03-05T02:57:38.101Z,95878.59
2023-03-05T03:00:06.874Z,95881.50
2023-03-05T03:02:34.965Z,95873.97
2023-03-05T03:05:03.018Z,95875.28
2023-03-05T03:07:31.227Z,95866.44
2023-03-05T03:09:59.280Z,95874.22
2023-03-05T03:12:27.226Z,95868.50
2023-03-05T03:14:56.552Z,95863.84
2023-03-05T03:17:24.622Z,95855.00
2023-03-05T03:19:52.499Z,95862.78
2023-03-05T03:22:20.512Z,95859.41
2023-03-05T03:24:48.448Z,95860.94
2023-03-05T03:27:16.647Z,95868.47
2023-03-05T03:29:44.625Z,95859.88
2023-03-05T03:32:14.163Z,95853.34
2023-03-05T03:34:42.084Z,95858.81
2023-03-05T03:37:10.206Z,95866.38
2023-03-05T03:39:38.261Z,95861.69
2023-03-05T03:42:06.520Z,95862.47
2023-03-05T03:44:34.501Z,95859.28
2023-03-05T03:47:02.455Z,95859.06
2023-03-05T03:49:31.841Z,95852.28
2023-03-05T03:51:59.787Z,95872.84
2023-03-05T03:54:27.902Z,95854.09
2023-03-05T03:56:55.769Z,95855.13
2023-03-05T03:59:24.141Z,95847.63
2023-03-05T04:01:52.035Z,95860.31
2023-03-05T04:04:19.997Z,95865.00
2023-03-05T04:06:49.315Z,95856.41
2023-03-05T04:09:17.244Z,95850.97
2023-03-05T04:11:45.262Z,95851.19
2023-03-05T04:14:13.641Z,95847.81
2023-03-05T04:16:41.645Z,95861.34
2023-03-05T04:19:09.654Z,95861.59
2023-03-05T04:21:37.583Z,95855.38
2023-03-05T04:24:08.382Z,95853.03
2023-03-05T04:26:36.445Z,95853.00
2023-03-05T04:29:04.613Z,95857.94
2023-03-05T04:31:32.634Z,95830.75
2023-03-05T04:34:01.198Z,95864.44
2023-03-05T04:36:29.233Z,95852.53
2023-03-05T04:38:57.135Z,95860.56
2023-03-05T04:41:26.429Z,95850.41
2023-03-05T04:43:54.387Z,95862.16
2023-03-05T04:46:22.521Z,95855.88
2023-03-05T04:48:50.364Z,95858.19
2023-03-05T04:51:18.271Z,95869.03
2023-03-05T04:53:46.321Z,95867.50
2023-03-05T04:56:14.786Z,95866.44
2023-03-05T04:58:44.347Z,95867.25
2023-03-05T05:01:12.323Z,95866.69
2023-03-05T05:03:40.275Z,95878.38
2023-03-05T05:06:08.604Z,95885.66
2023-03-05T05:08:37.124Z,95877.94
2023-03-05T05:11:06.560Z,95871.09
2023-03-05T05:13:34.750Z,95883.06
2023-03-05T05:16:07.125Z,95880.94
2023-03-05T05:18:35.155Z,95891.84
2023-03-05T05:21:03.117Z,95882.25
2023-03-05T05:23:31.097Z,95885.31
2023-03-05T05:25:59.929Z,95887.81
2023-03-05T05:28:27.858Z,95883.88
2023-03-05T05:30:56.075Z,95883.03
2023-03-05T05:33:26.146Z,95876.81
2023-03-05T05:35:54.112Z,95894.81
2023-03-05T05:38:22.186Z,95884.97
2023-03-05T05:40:50.240Z,95879.13
2023-03-05T05:43:18.105Z,95895.75
2023-03-05T05:45:46.118Z,95886.88
2023-03-05T05:48:14.213Z,95899.19
2023-03-05T05:50:43.617Z,95894.69
2023-03-05T05:53:11.529Z,95894.72
2023-03-05T05:55:41.563Z,95897.34
2023-03-05T05:58:09.573Z,95897.34
2023-03-05T06:00:37.652Z,95911.34
2023-03-05T06:03:05.741Z,95898.44
2023-03-05T06:05:33.768Z,95906.75
2023-03-05T06:08:03.233Z,95905.09
2023-03-05T06:10:31.312Z,95905.59
2023-03-05T06:12:59.431Z,95891.53
2023-03-05T06:15:27.399Z,95904.28
2023-03-05T06:17:55.447Z,95911.47
2023-03-05T06:20:23.444Z,95906.66
2023-03-05T06:22:51.679Z,95905.53
2023-03-05T06:25:21.244Z,95903.97
2023-03-05T06:27:49.285Z,95917.38
2023-03-05T06:30:17.592Z,95912.09
2023-03-05T06:32:45.453Z,95917.06
2023-03-05T06:35:14.268Z,95916.47
2023-03-05T06:37:42.319Z,95917.91
2023-03-05T06:40:11.323Z,95904.22
2023-03-05T06:42:42.112Z,95914.47
2023-03-05T06:45:11.051Z,95922.63
2023-03-05T06:47:39.022Z,95921.59
2023-03-05T06:50:07.595Z,95921.66
2023-03-05T06:52:35.598Z,95930.41
2023-03-05T06:55:03.552Z,95922.03
2023-03-05T06:57:31.601Z,95926.03
2023-03-05T07:00:01.177Z,95941.84
2023-03-05T07:02:29.317Z,95940.28
2023-03-05T07:04:57.314Z,95953.00
2023-03-05T07:07:25.295Z,95945.66
2023-03-05T07:09:53.904Z,95952.81
2023-03-05T07:12:21.921Z,95941.31
2023-03-05T07:14:49.934Z,95946.72
2023-03-05T07:17:19.808Z,95955.13
2023-03-05T07:19:47.801Z,95969.22
2023-03-05T07:22:16.477Z,95977.38
2023-03-05T07:24:44.499Z,95963.41
2023-03-05T07:27:12.569Z,95968.53
2023-03-05T07:29:40.558Z,95969.25
2023-03-05T07:32:08.703Z,95972.78
2023-03-05T07:34:39.959Z,95971.38
2023-03-05T07:37:07.849Z,95981.00
2023-03-05T07:39:35.892Z,95979.91
2023-03-05T07:42:03.975Z,95978.53
2023-03-05T07:44:32.070Z,95984.84
2023-03-05T07:47:00.259Z,95992.47
2023-03-05T07:49:28.299Z,95987.00
2023-03-05T07:51:58.023Z,95992.25
2023-03-05T07:54:26.093Z,96013.81
2023-03-05T07:56:56.791Z,96005.91
2023-03-05T07:59:24.810Z,96008.94
2023-03-05T08:01:52.645Z,96016.94
2023-03-05T08:04:20.811Z,96021.16
2023-03-05T08:06:50.085Z,96034.16
2023-03-05T08:09:19.595Z,96044.16
2023-03-05T08:11:47.543Z,96030.66
2023-03-05T08:14:15.637Z,96036.88
2023-03-05T08:16:44.523Z,96050.50
2023-03-05T08:19:13.440Z,96046.06
2023-03-05T08:21:41.305Z,96042.59
2023-03-05T08:24:10.308Z,96065.09
2023-03-05T08:26:39.859Z,96048.66
2023-03-05T08:29:08.209Z,96052.41
2023-03-05T08:31:36.738Z,96062.84
2023-03-05T08:34:05.856Z,96061.22
2023-03-05T08:36:33.903Z,96068.22
2023-03-05T08:39:02.017Z,96078.53
2023-03-05T08:41:30.331Z,96075.94
2023-03-05T08:43:59.676Z,96083.13
2023-03-05T08:46:27.735Z,96087.94
2023-03-05T08:48:55.796Z,96091.13
2023-03-05T08:51:25.779Z,96090.06
2023-03-05T08:53:54.659Z,96101.78
2023-03-05T08:56:22.866Z,96093.53
2023-03-05T08:58:52.581Z,96097.38
2023-03-05T09:01:22.806Z,96116.81
2023-03-05T09:03:51.287Z,96110.44
2023-03-05T09:06:19.303Z,96109.59
2023-03-05T09:08:47.447Z,96112.78
2023-03-05T09:11:15.604Z,96129.59
2023-03-05T09:13:43.982Z,96140.41
2023-03-05T09:16:17.452Z,96128.25
2023-03-05T09:18:46.948Z,96139.94
2023-03-05T09:21:16.510Z,96166.25
2023-03-05T09:23:44.738Z,96148.91
2023-03-05T09:26:14.007Z,96150.59
2023-03-05T09:28:42.029Z,96148.97
2023-03-05T09:31:10.428Z,96148.03
2023-03-05T09:33:38.682Z,96149.06
2023-03-05T09:36:17.918Z,96155.81
2023-03-05T09:38:46.119Z,96165.41
2023-03-05T09:41:17.424Z,96165.09
2023-03-05T09:43:50.767Z,96184.41
2023-03-05T09:46:22.650Z,96175.00
2023-03-05T09:48:52.035Z,96181.34
2023-03-05T09:51:25.986Z,96183.47
2023-03-05T09:54:02.649Z,96187.13
2023-03-05T09:56:32.361Z,96201.13
2023-03-05T09:59:03.588Z,96198.03
2023-03-05T10:01:38.871Z,96212.03
2023-03-05T10:04:11.558Z,96215.38
2023-03-05T10:06:48.489Z,96210.25
2023-03-05T10:09:21.106Z,96224.16
2023-03-05T10:11:52.242Z,96224.44
2023-03-05T10:14:25.078Z,96228.31
2023-03-05T10:17:24.030Z,96219.88
2023-03-05T10:19:58.854Z,96234.34
2023-03-05T10:22:29.870Z,96233.81
2023-03-05T10:25:05.214Z,96238.53
2023-03-05T10:27:43.497Z,96234.66
2023-03-05T10:30:22.241Z,96236.06
2023-03-05T10:32:55.119Z,96257.16
2023-03-05T10:35:41.047Z,96259.28
2023-03-05T10:38:29.142Z,96262.66
2023-03-05T10:40:57.267Z,96275.56
2023-03-05T10:43:28.898Z,96289.41
2023-03-05T10:45:58.810Z,96279.28
2023-03-05T10:48:29.544Z,96291.47
2023-03-05T10:51:00.694Z,96296.34
2023-03-05T10:53:33.767Z,96283.34
2023-03-05T10:56:03.156Z,96294.03
2023-03-05T10:58:31.382Z,96299.03
2023-03-05T11:01:00.496Z,96316.25
2023-03-05T11:03:46.646Z,96313.16
2023-03-05T11:06:15.403Z,96312.91
2023-03-05T11:08:44.937Z,96322.50
2023-03-05T11:11:14.263Z,96328.44
2023-03-05T11:13:51.234Z,96331.06
2023-03-05T11:16:21.139Z,96321.81
2023-03-05T11:18:49.252Z,96337.16
2023-03-05T11:21:24.016Z,96341.09
2023-03-05T11:24:06.823Z,96342.53
2023-03-05T11:26:35.070Z,96347.75
2023-03-05T11:29:05.076Z,96361.91
2023-03-05T11:31:34.194Z,96364.22
2023-03-05T11:34:03.572Z,96366.06
2023-03-05T11:36:32.446Z,96371.53
2023-03-05T11:39:02.321Z,96384.56
2023-03-05T11:41:34.155Z,96377.25
2023-03-05T11:44:05.825Z,96379.66
2023-03-05T11:46:42.391Z,96395.53
2023-03-05T11:49:13.043Z,96399.19
2023-03-05T11:51:43.014Z,96411.78
2023-03-05T11:54:15.947Z,96416.53
2023-03-05T11:56:47.200Z,96414.44
2023-03-05T11:59:17.639Z,96419.19
2023-03-05T12:01:47.764Z,96426.78
2023-03-05T12:04:16.391Z,96433.28
2023-03-05T12:06:45.877Z,96433.75
2023-03-05T12:09:17.225Z,96443.78
2023-03-05T12:11:49.525Z,96439.56
2023-03-05T12:14:20.422Z,96442.44
2023-03-05T12:16:49.940Z,96460.69
2023-03-05T12:19:35.892Z,96457.03
2023-03-05T12:22:04.311Z,96467.25
2023-03-05T12:24:36.588Z,96465.16
2023-03-05T12:27:11.035Z,96470.38
2023-03-05T12:29:43.882Z,96470.38
2023-03-05T12:32:31.592Z,96493.28
2023-03-05T12:35:00.269Z,96483.94
2023-03-05T12:37:52.195Z,96490.97
2023-03-05T12:40:24.524Z,96512.34
2023-03-05T12:42:58.108Z,96494.63
2023-03-05T12:45:27.722Z,96508.94
2023-03-05T12:48:13.570Z,96509.47
2023-03-05T12:50:52.910Z,96522.47
2023-03-05T12:53:21.648Z,96519.88
2023-03-05T12:55:58.267Z,96509.72
2023-03-05T12:58:35.656Z,96515.19
2023-03-05T13:01:05.687Z,96514.41
2023-03-05T13:03:36.804Z,96532.38
2023-03-05T13:06:06.865Z,96524.28
2023-03-05T13:08:36.294Z,96520.66
2023-03-05T13:11:05.867Z,96529.00
2023-03-05T13:13:36.973Z,96532.66
2023-03-05T13:16:05.546Z,96536.03
2023-03-05T13:18:34.305Z,96544.63
2023-03-05T13:21:04.612Z,96535.00
2023-03-05T13:23:36.259Z,96546.72
2023-03-05T13:26:05.601Z,96541.50
2023-03-05T13:28:34.012Z,96558.44
2023-03-05T13:31:05.202Z,96554.28
2023-03-05T13:33:33.922Z,96562.09
2023-03-05T13:36:02.440Z,96564.19
2023-03-05T13:38:32.969Z,96563.41
2023-03-05T13:41:20.691Z,96578.25
2023-03-05T13:43:50.065Z,96582.38
2023-03-05T13:46:26.217Z,96585.53
2023-03-05T13:48:54.313Z,96579.03
2023-03-05T13:51:22.687Z,96592.59
2023-03-05T13:53:51.390Z,96578.00
2023-03-05T13:56:21.114Z,96607.97
2023-03-05T13:58:52.592Z,96615.22
2023-03-05T14:01:28.296Z,96612.56
2023-03-05T14:03:57.447Z,96608.38
2023-03-05T14:06:28.036Z,96604.75
2023-03-05T14:09:00.688Z,96625.34
2023-03-05T14:11:28.854Z,96631.03
2023-03-05T14:14:01.624Z,96629.72
2023-03-05T14:16:33.410Z,96630.00
2023-03-05T14:19:02.404Z,96627.66
2023-03-05T14:21:44.455Z,96625.31
2023-03-05T14:24:16.772Z,96616.06
2023-03-05T14:26:49.992Z,96627.13
2023-03-05T14:29:19.715Z,96638.84
2023-03-05T14:31:50.311Z,96646.09
2023-03-05T14:34:22.166Z,96663.56
2023-03-05T14:36:50.862Z,96640.06
2023-03-05T14:39:32.556Z,96651.00
2023-03-05T14:42:30.554Z,96649.19
2023-03-05T14:44:59.350Z,96668.47
2023-03-05T14:47:29.219Z,96667.66
2023-03-05T14:49:57.319Z,96665.06
2023-03-05T14:52:26.338Z,96680.16
2023-03-05T14:54:55.950Z,96670.69
2023-03-05T14:57:24.869Z,96685.00
2023-03-05T14:59:52.814Z,96686.25
2023-03-05T15:02:22.601Z,96691.63
2023-03-05T15:04:52.100Z,96683.59
2023-03-05T15:07:23.771Z,96705.47
2023-03-05T15:09:51.781Z,96701.59
2023-03-05T15:12:24.731Z,96696.38
2023-03-05T15:14:53.269Z,96716.94
2023-03-05T15:17:22.382Z,96722.00
2023-03-05T15:19:51.827Z,96722.22
2023-03-05T15:22:19.817Z,96734.13
2023-03-05T15:24:47.921Z,96724.50
2023-03-05T15:27:15.866Z,96729.00
2023-03-05T15:29:43.956Z,96732.63
2023-03-05T15:32:11.970Z,96733.84
2023-03-05T15:34:40.143Z,96732.06
2023-03-05T15:37:09.516Z,96723.28
2023-03-05T15:39:37.628Z,96732.63
2023-03-05T15:42:06.592Z,96737.63
2023-03-05T15:44:34.768Z,96747.84
2023-03-05T15:47:02.736Z,96755.44
2023-03-05T15:49:30.677Z,96749.50
2023-03-05T15:51:58.826Z,96751.28
2023-03-05T15:54:28.705Z,96752.94
2023-03-05T15:56:56.747Z,96748.16
2023-03-05T15:59:25.241Z,96745.91
2023-03-05T16:01:53.259Z,96754.69
2023-03-05T16:04:21.196Z,96750.91
2023-03-05T16:06:50.733Z,96754.53
2023-03-05T16:09:20.395Z,96760.78
2023-03-05T16:11:51.646Z,96773.94
2023-03-05T16:14:22.904Z,96756.31
2023-03-05T16:16:50.982Z,96774.28
2023-03-05T16:19:19.957Z,96766.31
2023-03-05T16:21:47.988Z,96774.97
2023-03-05T16:24:16.041Z,96776.00
2023-03-05T16:26:44.106Z,96778.69
2023-03-05T16:29:14.215Z,96787.13
2023-03-05T16:31:43.349Z,96787.66
2023-03-05T16:34:14.103Z,96791.03
2023-03-05T16:36:46.280Z,96784.53
2023-03-05T16:39:14.406Z,96785.25
2023-03-05T16:41:42.467Z,96782.88
2023-03-05T16:44:11.041Z,96791.34
2023-03-05T16:46:42.135Z,96799.84
2023-03-05T16:49:10.167Z,96798.06
2023-03-05T16:51:38.105Z,96807.47
2023-03-05T16:54:06.551Z,96807.00
2023-03-05T16:56:35.706Z,96810.91
2023-03-05T16:59:04.351Z,96813.03
2023-03-05T17:01:32.439Z,96811.53
2023-03-05T17:04:02.332Z,96817.56
2023-03-05T17:06:31.111Z,96823.88
2023-03-05T17:08:59.121Z,96822.13
2023-03-05T17:11:27.554Z,96828.06
2023-03-05T17:13:55.472Z,96830.94
2023-03-05T17:16:23.936Z,96821.88
2023-03-05T17:18:52.139Z,96821.09
2023-03-05T17:21:21.563Z,96827.97
2023-03-05T17:23:49.600Z,96823.06
2023-03-05T17:26:18.988Z,96825.19
2023-03-05T17:28:46.944Z,96825.00
2023-03-05T17:31:15.603Z,96829.50
2023-03-05T17:33:43.657Z,96836.28
2023-03-05T17:36:15.355Z,96819.16
2023-03-05T17:38:45.060Z,96840.53
2023-03-05T17:41:13.348Z,96831.75
2023-03-05T17:43:41.383Z,96831.78
2023-03-05T17:46:09.600Z,96835.69
2023-03-05T17:48:39.370Z,96835.94
2023-03-05T17:51:07.539Z,96833.63
2023-03-05T17:53:36.158Z,96833.91
2023-03-05T17:56:07.098Z,96830.56
2023-03-05T17:58:35.076Z,96835.00
2023-03-05T18:01:03.182Z,96836.63
2023-03-05T18:03:31.168Z,96839.28
2023-03-05T18:05:59.361Z,96836.69
2023-03-05T18:08:27.230Z,96835.16
2023-03-05T18:10:55.320Z,96842.75
2023-03-05T18:13:24.826Z,96843.00
2023-03-05T18:15:52.866Z,96851.91
2023-03-05T18:18:20.924Z,96847.22
2023-03-05T18:20:49.027Z,96843.59
2023-03-05T18:23:17.217Z,96850.88
2023-03-05T18:25:45.653Z,96855.28
2023-03-05T18:28:14.421Z,96849.84
2023-03-05T18:30:44.359Z,96846.97
2023-03-05T18:33:16.779Z,96854.25
2023-03-05T18:35:44.749Z,96852.38
2023-03-05T18:38:12.820Z,96855.50
2023-03-05T18:40:41.094Z,96853.34
2023-03-05T18:43:10.942Z,96851.75
2023-03-05T18:45:38.851Z,96853.50
2023-03-05T18:48:08.660Z,96855.28
2023-03-05T18:50:36.737Z,96858.88
2023-03-05T18:53:04.731Z,96863.53
2023-03-05T18:55:32.674Z,96863.94
2023-03-05T18:58:00.771Z,96869.03
2023-03-05T19:00:30.298Z,96868.19
2023-03-05T19:02:58.564Z,96864.22
2023-03-05T19:05:28.003Z,96873.03
2023-03-05T19:07:56.377Z,96863.66
2023-03-05T19:10:24.751Z,96870.31
2023-03-05T19:13:08.330Z,96866.13
2023-03-05T19:15:36.310Z,96869.97
2023-03-05T19:18:05.492Z,96867.25
2023-03-05T19:20:34.919Z,96867.94
2023-03-05T19:23:02.817Z,96873.31
2023-03-05T19:25:30.764Z,96872.00
2023-03-05T19:27:58.687Z,96875.63
2023-03-05T19:30:26.674Z,96870.97
2023-03-05T19:32:54.780Z,96870.78
2023-03-05T19:35:23.295Z,96868.53
2023-03-05T19:37:52.760Z,96865.03
2023-03-05T19:40:20.935Z,96866.41
2023-03-05T19:42:48.958Z,96867.50
2023-03-05T19:45:16.955Z,96870.72
2023-03-05T19:47:44.870Z,96867.44
2023-03-05T19:50:15.538Z,96867.47
2023-03-05T19:52:43.648Z,96866.22
2023-03-05T19:55:13.315Z,96874.03
2023-03-05T19:57:41.341Z,96869.38
2023-03-05T20:00:09.962Z,96872.78
2023-03-05T20:02:37.931Z,96869.16
2023-03-05T20:05:06.212Z,96871.53
2023-03-05T20:07:34.320Z,96874.91
2023-03-05T20:10:02.325Z,96878.84
2023-03-05T20:12:32.055Z,96884.34
2023-03-05T20:14:59.943Z,96885.94
2023-03-05T20:17:27.915Z,96885.19
2023-03-05T20:19:59.138Z,96878.25
2023-03-05T20:22:27.076Z,96879.56
2023-03-05T20:24:55.088Z,96875.13
2023-03-05T20:27:23.076Z,96874.06
2023-03-05T20:29:52.497Z,96871.53
2023-03-05T20:32:20.405Z,96875.97
2023-03-05T20:34:51.745Z,96877.22
2023-03-05T20:37:45.529Z,96887.66
2023-03-05T20:40:14.110Z,96873.53
2023-03-05T20:42:42.067Z,96878.19
2023-03-05T20:45:12.094Z,96873.44
2023-03-05T20:47:42.549Z,96877.50
2023-03-05T20:50:11.218Z,96877.94
2023-03-05T20:52:40.477Z,96871.16
2023-03-05T20:55:09.441Z,96876.91
2023-03-05T20:57:37.400Z,96875.81
2023-03-05T21:00:05.932Z,96874.59
2023-03-05T21:02:35.573Z,96883.72
2023-03-05T21:05:03.708Z,96882.94
2023-03-05T21:07:31.838Z,96880.34
2023-03-05T21:09:59.847Z,96888.69
2023-03-05T21:12:27.668Z,96892.13
2023-03-05T21:14:55.552Z,96890.34
2023-03-05T21:17:23.409Z,96894.78
2023-03-05T21:19:53.556Z,96894.78
2023-03-05T21:22:21.442Z,96892.25
2023-03-05T21:25:16.567Z,96894.84
2023-03-05T21:27:44.727Z,96892.91
2023-03-05T21:30:13.182Z,96896.84
2023-03-05T21:32:41.112Z,96896.34
2023-03-05T21:35:14.269Z,96889.78
2023-03-05T21:37:43.023Z,96891.84
2023-03-05T21:40:11.745Z,96891.03
2023-03-05T21:42:40.500Z,96887.16
2023-03-05T21:45:08.775Z,96889.84
2023-03-05T21:47:36.682Z,96889.97
2023-03-05T21:50:04.856Z,96888.41
2023-03-05T21:52:34.670Z,96893.63
2023-03-05T21:55:03.167Z,96903.00
2023-03-05T21:57:32.734Z,96900.59
2023-03-05T22:00:00.704Z,96893.34
2023-03-05T22:02:28.863Z,96898.28
2023-03-05T22:04:56.894Z,96901.91
2023-03-05T22:07:24.883Z,96903.03
2023-03-05T22:09:56.463Z,96901.41
2023-03-05T22:13:07.866Z,96885.75
2023-03-05T22:15:41.766Z,96895.19
2023-03-05T22:18:09.787Z,96900.94
2023-03-05T22:20:37.679Z,96900.13
2023-03-05T22:23:05.734Z,96905.13
2023-03-05T22:25:35.364Z,96902.31
2023-03-05T22:30:50.134Z,96910.34
2023-03-05T22:33:18.465Z,96908.81
2023-03-05T22:35:46.402Z,96901.44
2023-03-05T22:38:15.001Z,96896.16
2023-03-05T22:40:45.224Z,96906.56
2023-03-05T22:43:13.753Z,96898.50
2023-03-05T22:45:41.815Z,96899.78
2023-03-05T22:48:10.633Z,96899.56
2023-03-05T22:50:38.953Z,96902.03
2023-03-05T22:53:06.863Z,96896.56
2023-03-05T22:55:34.855Z,96897.84
2023-03-05T22:58:04.306Z,96899.09
2023-03-05T23:00:32.316Z,96899.59
2023-03-05T23:03:00.459Z,96898.53
2023-03-05T23:05:28.504Z,96901.47
2023-03-05T23:07:56.350Z,96889.06
2023-03-05T23:10:26.912Z,96898.50
2023-03-05T23:12:55.882Z,96893.31
2023-03-05T23:15:26.145Z,96898.16
2023-03-05T23:17:54.716Z,96889.81
2023-03-05T23:20:23.833Z,96888.31
2023-03-05T23:22:52.978Z,96888.31
2023-03-05T23:25:21.610Z,96893.31
2023-03-05T23:27:49.779Z,96899.53
2023-03-05T23:30:19.852Z,96889.69
2023-03-05T23:32:51.544Z,96894.41
2023-03-05T23:35:20.815Z,96897.03
2023-03-05T23:37:48.978Z,96890.22
2023-03-05T23:40:18.751Z,96890.72
2023-03-05T23:42:46.869Z,96899.28
2023-03-05T23:45:16.113Z,96902.16
2023-03-05T23:47:44.071Z,96878.13
2023-03-05T23:50:16.032Z,96902.84
2023-03-05T23:52:44.193Z,96910.13
2023-03-05T23:55:15.824Z,96901.38
2023-03-05T23:57:44.088Z,96898.00
